createdAt,value
2022-09-12T00:01:36.684Z,19.64
2022-09-12T00:04:05.125Z,19.64
2022-09-12T00:06:36.040Z,19.64
2022-09-12T00:09:08.052Z,19.63
2022-09-12T00:11:39.172Z,19.63
2022-09-12T00:14:10.582Z,19.64
2022-09-12T00:16:39.751Z,19.64
2022-09-12T00:19:09.509Z,19.64
2022-09-12T00:21:39.960Z,19.64
2022-09-12T00:24:09.521Z,19.66
2022-09-12T00:26:39.282Z,19.65
2022-09-12T00:29:07.800Z,19.67
2022-09-12T00:31:36.427Z,19.67
2022-09-12T00:34:04.878Z,19.68
2022-09-12T00:36:33.237Z,19.69
2022-09-12T00:39:01.709Z,19.67
2022-09-12T00:41:32.524Z,19.67
2022-09-12T00:44:05.801Z,19.67
2022-09-12T00:46:40.958Z,19.66
2022-09-12T00:49:15.683Z,19.65
2022-09-12T00:51:53.780Z,19.66
2022-09-12T00:54:27.683Z,19.64
2022-09-12T00:57:01.923Z,19.64
2022-09-12T00:59:39.184Z,19.63
2022-09-12T01:02:08.545Z,19.63
2022-09-12T01:04:38.982Z,19.61
2022-09-12T01:07:09.673Z,19.60
2022-09-12T01:09:39.150Z,19.59
2022-09-12T01:12:07.986Z,19.58
2022-09-12T01:14:39.491Z,19.56
2022-09-12T01:17:08.410Z,19.56
2022-09-12T01:20:33.067Z,19.50
2022-09-12T01:23:55.660Z,19.47
2022-09-12T01:27:21.784Z,19.44
2022-09-12T01:30:33.072Z,19.40
2022-09-12T01:33:39.969Z,19.41
2022-09-12T01:36:34.775Z,19.41
2022-09-12T01:39:05.881Z,19.45
2022-09-12T01:41:50.096Z,19.45
2022-09-12T01:44:30.198Z,19.48
2022-09-12T01:47:08.564Z,19.53
2022-09-12T01:49:46.361Z,19.59
2022-09-12T01:52:22.038Z,19.64
2022-09-12T01:54:57.153Z,19.68
2022-09-12T01:57:31.220Z,19.71
2022-09-12T02:00:06.201Z,19.73
2022-09-12T02:02:40.839Z,19.78
2022-09-12T02:05:13.049Z,19.80
2022-09-12T02:07:46.948Z,19.84
2022-09-12T02:10:21.267Z,19.85
2022-09-12T02:12:58.469Z,19.84
2022-09-12T02:15:33.662Z,19.81
2022-09-12T02:18:07.646Z,19.80
2022-09-12T02:20:51.555Z,19.77
2022-09-12T02:23:25.442Z,19.74
2022-09-12T02:25:58.699Z,19.71
2022-09-12T02:28:31.892Z,19.68
2022-09-12T02:31:11.689Z,19.63
2022-09-12T02:33:50.587Z,19.62
2022-09-12T02:36:33.366Z,19.58
2022-09-12T02:39:01.950Z,19.56
2022-09-12T02:41:30.417Z,19.53
2022-09-12T02:43:58.878Z,19.51
2022-09-12T02:46:34.252Z,19.48
2022-09-12T02:49:09.349Z,19.46
2022-09-12T02:51:38.657Z,19.45
2022-09-12T02:54:09.322Z,19.42
2022-09-12T02:56:42.777Z,19.39
2022-09-12T02:59:16.967Z,19.36
2022-09-12T03:02:08.728Z,19.32
2022-09-12T03:04:59.639Z,19.32
2022-09-12T03:07:45.932Z,19.29
2022-09-12T03:10:25.299Z,19.27
2022-09-12T03:13:08.344Z,19.25
2022-09-12T03:15:51.043Z,19.21
2022-09-12T03:18:40.940Z,19.19
2022-09-12T03:21:21.367Z,19.19
2022-09-12T03:24:05.520Z,19.17
2022-09-12T03:26:43.036Z,19.17
2022-09-12T03:29:14.010Z,19.16
2022-09-12T03:31:52.390Z,19.14
2022-09-12T03:34:22.544Z,19.15
2022-09-12T03:36:55.476Z,19.14
2022-09-12T03:39:26.457Z,19.13
2022-09-12T03:41:54.937Z,19.12
2022-09-12T03:44:23.732Z,19.11
2022-09-12T03:46:52.495Z,19.11
2022-09-12T03:49:20.867Z,19.09
2022-09-12T03:51:49.336Z,19.09
2022-09-12T03:54:19.028Z,19.08
2022-09-12T03:56:47.512Z,19.08
2022-09-12T03:59:15.833Z,19.07
2022-09-12T04:01:44.141Z,19.05
2022-09-12T04:04:12.530Z,19.05
2022-09-12T04:06:41.992Z,19.04
2022-09-12T04:09:10.398Z,19.03
2022-09-12T04:11:40.097Z,19.03
2022-09-12T04:14:08.528Z,19.01
2022-09-12T04:16:37.041Z,19.01
2022-09-12T04:19:05.416Z,19.04
2022-09-12T04:21:33.915Z,19.07
2022-09-12T04:24:02.829Z,19.09
2022-09-12T04:26:31.905Z,19.13
2022-09-12T04:29:01.670Z,19.18
2022-09-12T04:31:30.300Z,19.24
2022-09-12T04:34:01.464Z,19.30
2022-09-12T04:36:31.161Z,19.35
2022-09-12T04:39:00.378Z,19.45
2022-09-12T04:41:31.244Z,19.50
2022-09-12T04:44:04.461Z,19.57
2022-09-12T04:46:36.763Z,19.64
2022-09-12T04:49:05.269Z,19.73
2022-09-12T04:51:36.440Z,19.80
2022-09-12T04:54:07.900Z,19.85
2022-09-12T04:56:39.508Z,19.87
2022-09-12T04:59:10.461Z,19.90
2022-09-12T05:01:38.949Z,19.90
2022-09-12T05:04:07.395Z,19.90
2022-09-12T05:06:38.488Z,19.90
2022-09-12T05:09:09.133Z,19.90
2022-09-12T05:12:03.205Z,19.92
2022-09-12T05:14:32.495Z,19.95
2022-09-12T05:17:01.780Z,20.01
2022-09-12T05:19:31.756Z,20.09
2022-09-12T05:22:01.225Z,20.13
2022-09-12T05:24:29.558Z,20.17
2022-09-12T05:26:57.959Z,20.20
2022-09-12T05:29:27.140Z,20.20
2022-09-12T05:31:56.968Z,20.19
2022-09-12T05:34:25.548Z,20.18
2022-09-12T05:36:53.899Z,20.18
2022-09-12T05:39:22.283Z,20.17
2022-09-12T05:41:50.692Z,20.20
2022-09-12T05:44:19.063Z,20.22
2022-09-12T05:46:50.872Z,20.24
2022-09-12T05:49:21.546Z,20.26
2022-09-12T05:51:50.845Z,20.35
2022-09-12T05:54:21.525Z,20.48
2022-09-12T05:56:50.212Z,20.60
2022-09-12T05:59:21.646Z,20.71
2022-09-12T06:01:50.654Z,20.81
2022-09-12T06:04:20.744Z,21.02
2022-09-12T06:06:49.114Z,21.18
2022-09-12T06:09:18.815Z,21.27
2022-09-12T06:11:47.895Z,21.29
2022-09-12T06:14:18.082Z,21.27
2022-09-12T06:16:47.365Z,21.26
2022-09-12T06:19:18.751Z,21.25
2022-09-12T06:21:49.566Z,21.26
2022-09-12T06:24:19.185Z,21.27
2022-09-12T06:26:48.518Z,21.32
2022-09-12T06:29:17.460Z,21.37
2022-09-12T06:31:46.509Z,21.42
2022-09-12T06:34:16.700Z,21.47
2022-09-12T06:36:48.802Z,21.50
2022-09-12T06:39:19.537Z,21.54
2022-09-12T06:41:49.074Z,21.63
2022-09-12T06:44:20.122Z,21.71
2022-09-12T06:46:49.101Z,21.82
2022-09-12T06:49:18.711Z,21.88
2022-09-12T06:51:49.367Z,21.97
2022-09-12T06:54:18.240Z,22.06
2022-09-12T06:56:46.826Z,22.11
2022-09-12T06:59:15.348Z,22.20
2022-09-12T07:01:44.028Z,22.31
2022-09-12T07:04:12.757Z,22.40
2022-09-12T07:06:44.773Z,22.44
2022-09-12T07:09:17.505Z,22.48
2022-09-12T07:11:47.028Z,22.51
2022-09-12T07:14:16.935Z,22.54
2022-09-12T07:16:45.514Z,22.61
2022-09-12T07:19:14.118Z,22.67
2022-09-12T07:21:42.525Z,22.74
2022-09-12T07:24:13.131Z,22.84
2022-09-12T07:26:42.667Z,22.93
2022-09-12T07:32:07.176Z,23.02
2022-09-12T07:34:36.582Z,23.06
2022-09-12T07:37:05.227Z,23.10
2022-09-12T07:39:35.058Z,23.12
2022-09-12T07:42:03.519Z,23.13
2022-09-12T07:44:31.902Z,23.10
2022-09-12T07:47:00.372Z,23.09
2022-09-12T07:49:29.042Z,23.05
2022-09-12T07:51:57.878Z,22.98
2022-09-12T07:54:26.408Z,22.92
2022-09-12T07:56:56.770Z,22.83
2022-09-12T07:59:50.872Z,22.77
2022-09-12T08:02:17.801Z,22.73
2022-09-12T08:04:48.288Z,22.69
2022-09-12T08:07:18.402Z,22.69
2022-09-12T08:09:47.447Z,22.69
2022-09-12T08:12:21.049Z,22.69
2022-09-12T08:14:49.503Z,22.76
2022-09-12T08:17:18.026Z,22.79
2022-09-12T08:19:46.477Z,22.81
2022-09-12T08:22:17.342Z,22.82
2022-09-12T08:24:46.519Z,22.81
2022-09-12T08:27:16.826Z,22.79
2022-09-12T08:29:45.211Z,22.80
2022-09-12T08:32:13.841Z,22.91
2022-09-12T08:34:42.273Z,23.05
2022-09-12T08:37:10.816Z,23.19
2022-09-12T08:39:39.322Z,23.35
2022-09-12T08:45:13.279Z,23.56
2022-09-12T08:47:45.889Z,23.65
2022-09-12T08:50:19.893Z,23.67
2022-09-12T08:52:58.564Z,23.61
2022-09-12T08:55:35.721Z,23.60
2022-09-12T08:58:14.622Z,23.60
2022-09-12T09:00:55.877Z,23.59
2022-09-12T09:03:57.790Z,23.54
2022-09-12T09:06:58.396Z,23.58
2022-09-12T09:09:43.027Z,23.70
2022-09-12T09:12:24.363Z,23.85
2022-09-12T09:15:38.845Z,23.98
2022-09-12T09:18:18.300Z,24.13
2022-09-12T09:20:52.121Z,24.31
2022-09-12T09:23:30.912Z,24.50
2022-09-12T09:26:02.938Z,24.65
2022-09-12T09:28:40.366Z,24.75
2022-09-12T09:31:16.485Z,24.86
2022-09-12T09:33:50.948Z,25.03
2022-09-12T09:36:25.231Z,25.22
2022-09-12T09:39:03.545Z,25.39
2022-09-12T09:41:47.996Z,25.45
2022-09-12T09:44:16.545Z,25.53
2022-09-12T09:46:45.147Z,25.59
2022-09-12T09:49:17.701Z,25.64
2022-09-12T09:51:46.584Z,25.68
2022-09-12T09:54:21.973Z,25.68
2022-09-12T09:56:53.199Z,25.69
2022-09-12T09:59:28.910Z,25.66
2022-09-12T10:02:03.648Z,25.67
2022-09-12T10:04:41.589Z,25.77
2022-09-12T10:07:21.203Z,25.97
2022-09-12T10:10:15.588Z,26.19
2022-09-12T10:12:45.311Z,26.34
2022-09-12T10:15:22.256Z,26.33
2022-09-12T10:17:52.102Z,26.34
2022-09-12T10:20:45.512Z,26.31
2022-09-12T10:23:32.124Z,26.27
2022-09-12T10:26:04.300Z,26.18
2022-09-12T10:28:39.417Z,26.08
2022-09-12T10:31:09.210Z,26.00
2022-09-12T10:33:43.726Z,25.90
2022-09-12T10:36:14.400Z,25.87
2022-09-12T10:38:52.577Z,25.90
2022-09-12T10:41:22.989Z,26.05
2022-09-12T10:43:51.756Z,26.41
2022-09-12T10:46:29.999Z,26.85
2022-09-12T10:49:29.247Z,27.41
2022-09-12T10:52:17.444Z,27.75
2022-09-12T10:54:46.301Z,27.80
2022-09-12T10:58:00.890Z,27.92
2022-09-12T11:00:31.308Z,28.14
2022-09-12T11:03:10.714Z,28.40
2022-09-12T11:05:56.452Z,28.77
2022-09-12T11:09:11.187Z,29.09
2022-09-12T11:12:01.251Z,29.10
2022-09-12T11:14:57.408Z,29.00
2022-09-12T11:17:42.447Z,29.25
2022-09-12T11:20:54.981Z,29.70
2022-09-12T11:24:18.510Z,30.07
2022-09-12T11:27:01.953Z,30.41
2022-09-12T11:29:49.462Z,30.81
2022-09-12T11:33:08.693Z,31.28
2022-09-12T11:35:45.789Z,31.68
2022-09-12T11:39:00.500Z,31.53
2022-09-12T11:41:34.324Z,31.10
2022-09-12T11:44:15.146Z,31.03
2022-09-12T11:46:49.810Z,31.36
2022-09-12T11:49:34.830Z,31.79
2022-09-12T11:52:12.298Z,32.42
2022-09-12T11:54:52.767Z,32.90
2022-09-12T11:57:35.292Z,33.28
2022-09-12T12:00:09.852Z,33.76
2022-09-12T12:02:49.396Z,33.86
2022-09-12T12:05:23.911Z,33.65
2022-09-12T12:07:56.045Z,33.72
2022-09-12T12:10:34.088Z,33.70
2022-09-12T12:13:13.832Z,33.60
2022-09-12T12:15:48.724Z,33.58
2022-09-12T12:18:21.721Z,33.85
2022-09-12T12:20:50.963Z,34.34
2022-09-12T12:23:30.218Z,34.77
2022-09-12T12:26:01.040Z,35.10
2022-09-12T12:29:03.663Z,34.96
2022-09-12T12:31:32.443Z,34.64
2022-09-12T12:34:30.921Z,34.22
2022-09-12T12:37:05.536Z,34.29
2022-09-12T12:40:01.409Z,34.03
2022-09-12T12:43:32.183Z,33.63
2022-09-12T12:46:17.602Z,33.33
2022-09-12T12:49:10.632Z,33.45
2022-09-12T12:51:57.124Z,33.28
2022-09-12T12:54:35.867Z,32.98
2022-09-12T12:57:17.591Z,33.14
2022-09-12T12:59:52.983Z,33.13
2022-09-12T13:02:28.344Z,33.08
2022-09-12T13:04:58.058Z,33.43
2022-09-12T13:07:35.034Z,34.01
2022-09-12T13:10:07.186Z,34.53
2022-09-12T13:12:39.059Z,34.78
2022-09-12T13:15:50.389Z,35.51
2022-09-12T13:18:27.928Z,36.25
2022-09-12T13:21:09.060Z,36.76
2022-09-12T13:23:37.706Z,37.08
2022-09-12T13:26:14.126Z,37.40
2022-09-12T13:28:43.388Z,37.63
2022-09-12T13:31:23.320Z,37.93
2022-09-12T13:33:54.858Z,38.17
2022-09-12T13:36:54.875Z,38.54
2022-09-12T13:39:29.009Z,38.91
2022-09-12T13:42:39.137Z,39.32
2022-09-12T13:45:15.531Z,39.72
2022-09-12T13:47:47.742Z,39.96
2022-09-12T13:50:21.671Z,40.26
2022-09-12T13:52:55.746Z,40.59
2022-09-12T13:55:31.768Z,40.83
2022-09-12T13:58:03.374Z,40.83
2022-09-12T14:00:37.332Z,40.62
2022-09-12T14:03:58.123Z,40.39
2022-09-12T14:06:27.796Z,40.24
2022-09-12T14:08:59.024Z,39.62
2022-09-12T14:11:29.596Z,39.29
2022-09-12T14:13:59.468Z,38.85
2022-09-12T14:16:29.166Z,38.54
2022-09-12T14:18:59.789Z,38.43
2022-09-12T14:21:36.866Z,37.85
2022-09-12T14:24:08.673Z,37.08
2022-09-12T14:26:40.592Z,36.23
2022-09-12T14:29:13.653Z,35.44
2022-09-12T14:31:43.826Z,34.72
2022-09-12T14:34:17.227Z,34.03
2022-09-12T14:36:49.110Z,33.46
2022-09-12T14:39:23.913Z,32.95
2022-09-12T14:42:02.367Z,32.41
2022-09-12T14:44:32.195Z,31.87
2022-09-12T14:47:14.019Z,31.39
2022-09-12T14:49:44.132Z,31.07
2022-09-12T14:52:28.293Z,30.75
2022-09-12T14:55:00.017Z,30.50
2022-09-12T14:57:40.164Z,30.24
2022-09-12T15:00:24.365Z,29.97
2022-09-12T15:02:54.647Z,29.78
2022-09-12T15:05:28.661Z,29.55
2022-09-12T15:08:00.279Z,29.36
2022-09-12T15:10:33.134Z,29.19
2022-09-12T15:13:20.677Z,29.02
2022-09-12T15:15:51.916Z,28.92
2022-09-12T15:18:21.837Z,28.79
2022-09-12T15:20:56.125Z,28.65
2022-09-12T15:23:35.622Z,28.51
2022-09-12T15:26:05.082Z,28.41
2022-09-12T15:28:34.723Z,28.29
2022-09-12T15:31:11.548Z,28.16
2022-09-12T15:33:39.945Z,28.08
2022-09-12T15:36:17.766Z,27.96
2022-09-12T15:38:47.317Z,27.87
2022-09-12T15:41:19.528Z,27.76
2022-09-12T15:43:48.872Z,27.68
2022-09-12T15:46:19.487Z,27.59
2022-09-12T15:48:48.243Z,27.50
2022-09-12T15:51:20.781Z,27.41
2022-09-12T15:53:51.219Z,27.33
2022-09-12T15:56:22.672Z,27.24
2022-09-12T15:58:59.165Z,27.14
2022-09-12T16:01:31.309Z,27.05
2022-09-12T16:03:59.943Z,26.98
2022-09-12T16:06:36.303Z,26.91
2022-09-12T16:09:05.597Z,26.83
2022-09-12T16:11:34.144Z,26.73
2022-09-12T16:14:03.814Z,26.67
2022-09-12T16:16:32.610Z,26.58
2022-09-12T16:19:00.991Z,26.52
2022-09-12T16:21:31.006Z,26.43
2022-09-12T16:23:59.544Z,26.37
2022-09-12T16:26:28.073Z,26.31
2022-09-12T16:28:57.329Z,26.26
2022-09-12T16:31:26.263Z,26.20
2022-09-12T16:33:54.930Z,26.15
2022-09-12T16:36:24.202Z,26.10
2022-09-12T16:38:55.531Z,26.02
2022-09-12T16:41:26.399Z,25.99
2022-09-12T16:43:55.409Z,25.93
2022-09-12T16:46:26.585Z,25.87
2022-09-12T16:48:58.030Z,25.81
2022-09-12T16:51:28.768Z,25.73
2022-09-12T16:53:58.897Z,25.67
2022-09-12T16:56:27.663Z,25.61
2022-09-12T16:59:04.199Z,25.53
2022-09-12T17:01:33.740Z,25.47
2022-09-12T17:04:02.859Z,25.39
2022-09-12T17:06:31.814Z,25.32
2022-09-12T17:09:04.362Z,25.23
2022-09-12T17:11:36.551Z,25.16
2022-09-12T17:14:07.740Z,25.07
2022-09-12T17:16:38.580Z,25.02
2022-09-12T17:19:08.098Z,24.96
2022-09-12T17:21:36.897Z,24.89
2022-09-12T17:24:07.090Z,24.83
2022-09-12T17:26:35.556Z,24.76
2022-09-12T17:29:04.354Z,24.72
2022-09-12T17:31:35.937Z,24.68
2022-09-12T17:34:04.991Z,24.70
2022-09-12T17:36:34.098Z,24.71
2022-09-12T17:39:05.012Z,24.71
2022-09-12T17:41:34.979Z,24.72
2022-09-12T17:44:05.027Z,24.75
2022-09-12T17:46:36.285Z,24.77
2022-09-12T17:49:07.941Z,24.78
2022-09-12T17:51:36.934Z,24.81
2022-09-12T17:54:08.491Z,24.80
2022-09-12T17:56:39.609Z,24.77
2022-09-12T17:59:11.951Z,24.73
2022-09-12T18:01:58.037Z,24.67
2022-09-12T18:04:27.861Z,24.60
2022-09-12T18:06:57.894Z,24.54
2022-09-12T18:09:26.605Z,24.48
2022-09-12T18:11:57.399Z,24.42
2022-09-12T18:14:28.033Z,24.38
2022-09-12T18:16:57.426Z,24.33
2022-09-12T18:19:27.027Z,24.29
2022-09-12T18:21:56.594Z,24.26
2022-09-12T18:24:25.852Z,24.19
2022-09-12T18:26:56.961Z,24.12
2022-09-12T18:29:28.069Z,24.04
2022-09-12T18:31:57.274Z,23.97
2022-09-12T18:34:26.013Z,23.90
2022-09-12T18:36:55.261Z,23.81
2022-09-12T18:39:27.630Z,23.72
2022-09-12T18:41:58.077Z,23.66
2022-09-12T18:44:26.873Z,23.58
2022-09-12T18:46:56.255Z,23.52
2022-09-12T18:49:25.328Z,23.47
2022-09-12T18:51:53.777Z,23.43
2022-09-12T18:54:22.788Z,23.39
2022-09-12T18:56:51.306Z,23.36
2022-09-12T18:59:22.433Z,23.32
2022-09-12T19:01:51.406Z,23.32
2022-09-12T19:04:20.106Z,23.28
2022-09-12T19:06:50.538Z,23.25
2022-09-12T19:09:22.046Z,23.22
2022-09-12T19:11:51.043Z,23.17
2022-09-12T19:14:24.021Z,23.11
2022-09-12T19:16:53.669Z,23.07
2022-09-12T19:19:23.398Z,23.02
2022-09-12T19:21:55.104Z,22.98
2022-09-12T19:24:23.906Z,22.96
2022-09-12T19:26:52.770Z,22.95
2022-09-12T19:29:22.910Z,22.90
2022-09-12T19:31:51.580Z,22.90
2022-09-12T19:34:20.672Z,22.90
2022-09-12T19:36:49.386Z,22.88
2022-09-12T19:39:20.805Z,22.84
2022-09-12T19:41:49.426Z,22.80
2022-09-12T19:44:19.447Z,22.77
2022-09-12T19:46:49.477Z,22.72
2022-09-12T19:49:18.153Z,22.68
2022-09-12T19:51:46.588Z,22.63
2022-09-12T19:54:15.126Z,22.58
2022-09-12T19:56:43.719Z,22.52
2022-09-12T19:59:12.689Z,22.46
2022-09-12T20:01:41.413Z,22.41
2022-09-12T20:04:11.351Z,22.36
2022-09-12T20:06:40.168Z,22.32
2022-09-12T20:09:08.541Z,22.28
2022-09-12T20:11:36.911Z,22.21
2022-09-12T20:14:05.274Z,22.15
2022-09-12T20:16:36.721Z,22.12
2022-09-12T20:19:08.555Z,22.08
2022-09-12T20:21:38.682Z,22.03
2022-09-12T20:24:09.600Z,21.99
2022-09-12T20:26:38.038Z,21.96
2022-09-12T20:29:07.650Z,21.91
2022-09-12T20:31:37.433Z,21.88
2022-09-12T20:34:06.122Z,21.87
2022-09-12T20:36:38.589Z,21.83
2022-09-12T20:39:07.346Z,21.82
2022-09-12T20:41:36.738Z,21.80
2022-09-12T20:44:05.266Z,21.77
2022-09-12T20:46:34.346Z,21.75
2022-09-12T20:49:02.967Z,21.73
2022-09-12T20:51:31.848Z,21.71
2022-09-12T20:54:04.132Z,21.66
2022-09-12T20:56:35.738Z,21.64
2022-09-12T20:59:04.658Z,21.60
2022-09-12T21:01:33.742Z,21.56
2022-09-12T21:04:03.101Z,21.54
2022-09-12T21:06:31.642Z,21.50
2022-09-12T21:09:01.588Z,21.48
2022-09-12T21:11:30.921Z,21.46
2022-09-12T21:13:59.503Z,21.44
2022-09-12T21:16:27.957Z,21.41
2022-09-12T21:18:59.496Z,21.39
2022-09-12T21:21:28.385Z,21.36
2022-09-12T21:24:02.763Z,21.32
2022-09-12T21:26:31.905Z,21.32
2022-09-12T21:29:00.265Z,21.30
2022-09-12T21:31:28.721Z,21.27
2022-09-12T21:33:57.189Z,21.27
2022-09-12T21:36:29.027Z,21.26
2022-09-12T21:39:00.943Z,21.27
2022-09-12T21:41:29.718Z,21.26
2022-09-12T21:43:58.026Z,21.26
2022-09-12T21:46:26.500Z,21.25
2022-09-12T21:48:55.373Z,21.24
2022-09-12T21:51:23.709Z,21.22
2022-09-12T21:53:52.248Z,21.22
2022-09-12T21:56:22.012Z,21.19
2022-09-12T21:58:50.346Z,21.17
2022-09-12T22:01:18.787Z,21.15
2022-09-12T22:03:47.309Z,21.12
2022-09-12T22:06:18.629Z,21.10
2022-09-12T22:08:50.200Z,21.07
2022-09-12T22:11:20.649Z,21.05
2022-09-12T22:13:50.421Z,21.02
2022-09-12T22:16:18.858Z,21.03
2022-09-12T22:18:47.900Z,21.06
2022-09-12T22:21:18.969Z,21.07
2022-09-12T22:24:05.153Z,21.10
2022-09-12T22:26:41.271Z,21.10
2022-09-12T22:29:11.304Z,21.14
2022-09-12T22:31:40.154Z,21.17
2022-09-12T22:34:08.587Z,21.17
2022-09-12T22:36:38.974Z,21.20
2022-09-12T22:39:07.903Z,21.22
2022-09-12T22:41:36.287Z,21.23
2022-09-12T22:44:04.828Z,21.24
2022-09-12T22:46:34.995Z,21.25
2022-09-12T22:49:04.703Z,21.29
2022-09-12T22:51:33.710Z,21.32
2022-09-12T22:54:02.042Z,21.35
2022-09-12T22:56:30.413Z,21.35
2022-09-12T22:58:59.169Z,21.39
2022-09-12T23:01:27.836Z,21.40
2022-09-12T23:03:57.581Z,21.42
2022-09-12T23:06:26.545Z,21.46
2022-09-12T23:08:56.300Z,21.48
2022-09-12T23:11:25.084Z,21.51
2022-09-12T23:13:53.481Z,21.53
2022-09-12T23:16:24.919Z,21.55
2022-09-12T23:18:53.550Z,21.58
2022-09-12T23:21:23.708Z,21.60
2022-09-12T23:23:52.570Z,21.62
2022-09-12T23:26:24.481Z,21.62
2022-09-12T23:28:55.039Z,21.63
2022-09-12T23:31:25.158Z,21.62
2022-09-12T23:33:55.786Z,21.62
2022-09-12T23:36:27.225Z,21.58
2022-09-12T23:38:56.416Z,21.58
2022-09-12T23:41:25.480Z,21.54
2022-09-12T23:43:53.832Z,21.53
2022-09-12T23:46:23.011Z,21.51
2022-09-12T23:48:53.257Z,21.49
2022-09-12T23:51:22.811Z,21.47
2022-09-12T23:53:52.648Z,21.44
2022-09-12T23:56:22.188Z,21.43
2022-09-12T23:58:52.721Z,21.40
